createdAt,value
2017-07-27T00:03:47.458Z,11.77
2017-07-27T00:08:49.255Z,13.20
2017-07-27T00:13:50.994Z,12.53
2017-07-27T00:18:52.901Z,13.40
2017-07-27T00:23:54.729Z,11.60
2017-07-27T00:28:56.481Z,13.17
2017-07-27T00:33:58.239Z,20.20
2017-07-27T00:39:00.760Z,13.53
2017-07-27T00:44:02.506Z,20.23
2017-07-27T00:49:04.267Z,11.83
2017-07-27T00:54:06.074Z,16.43
2017-07-27T00:59:07.827Z,16.00
2017-07-27T01:04:10.100Z,19.10
2017-07-27T01:09:12.274Z,13.40
2017-07-27T01:14:15.360Z,14.10
2017-07-27T01:19:18.443Z,19.43
2017-07-27T01:24:20.724Z,24.57
2017-07-27T01:29:23.074Z,16.13
2017-07-27T01:34:25.253Z,14.40
2017-07-27T01:39:27.053Z,12.40
2017-07-27T01:44:28.971Z,16.80
2017-07-27T01:49:31.485Z,15.67
2017-07-27T01:54:33.250Z,28.47
2017-07-27T01:59:35.032Z,22.03
2017-07-27T02:04:36.802Z,12.80
2017-07-27T02:09:38.627Z,18.67
2017-07-27T02:14:40.419Z,11.80
2017-07-27T02:19:42.203Z,15.80
2017-07-27T02:24:44.138Z,13.37
2017-07-27T02:29:46.173Z,14.20
2017-07-27T02:34:48.157Z,14.70
2017-07-27T02:39:49.930Z,16.27
2017-07-27T02:44:51.720Z,19.57
2017-07-27T02:49:53.661Z,18.63
2017-07-27T02:54:55.397Z,17.40
2017-07-27T02:59:57.194Z,23.20
2017-07-27T03:04:58.918Z,18.87
2017-07-27T03:10:01.446Z,18.90
2017-07-27T03:15:03.342Z,17.40
2017-07-27T03:20:05.087Z,23.20
2017-07-27T03:25:06.794Z,28.03
2017-07-27T03:30:08.574Z,31.77
2017-07-27T03:35:10.343Z,26.37
2017-07-27T03:40:12.066Z,29.87
2017-07-27T03:45:13.796Z,34.97
2017-07-27T03:50:15.574Z,34.73
2017-07-27T03:55:17.319Z,42.33
2017-07-27T04:00:19.066Z,38.47
2017-07-27T04:05:20.789Z,35.23
2017-07-27T04:10:22.649Z,35.83
2017-07-27T04:15:24.458Z,28.63
2017-07-27T04:20:26.215Z,36.73
2017-07-27T04:25:27.988Z,35.27
2017-07-27T04:30:29.705Z,35.10
2017-07-27T04:35:31.434Z,42.13
2017-07-27T04:40:33.175Z,39.50
2017-07-27T04:45:34.900Z,41.80
2017-07-27T04:50:36.678Z,46.80
2017-07-27T04:55:38.476Z,43.43
2017-07-27T05:00:40.313Z,38.73
2017-07-27T05:05:42.089Z,41.83
2017-07-27T05:10:43.899Z,34.97
2017-07-27T05:15:45.653Z,32.20
2017-07-27T05:20:52.569Z,29.17
2017-07-27T05:25:54.675Z,29.90
2017-07-27T05:31:00.816Z,24.13
2017-07-27T05:36:03.038Z,21.30
2017-07-27T05:41:09.386Z,18.90
2017-07-27T05:46:14.317Z,19.50
2017-07-27T05:51:18.708Z,19.63
2017-07-27T05:56:20.565Z,19.67
2017-07-27T06:01:28.160Z,17.50
2017-07-27T06:06:36.296Z,22.93
2017-07-27T06:11:42.965Z,16.47
2017-07-27T06:16:48.843Z,16.50
2017-07-27T06:21:55.867Z,21.57
2017-07-27T06:27:01.318Z,17.03
2017-07-27T06:32:07.663Z,13.07
2017-07-27T06:37:09.765Z,16.63
2017-07-27T06:42:11.479Z,14.33
2017-07-27T06:47:13.282Z,13.37
2017-07-27T06:52:15.106Z,14.67
2017-07-27T06:57:16.889Z,15.93
2017-07-27T07:02:18.630Z,17.43
2017-07-27T07:07:20.374Z,17.63
2017-07-27T07:12:22.133Z,17.17
2017-07-27T07:17:23.904Z,19.40
2017-07-27T07:22:25.698Z,15.63
2017-07-27T07:27:27.452Z,14.53
2017-07-27T07:32:31.299Z,16.00
2017-07-27T07:37:34.803Z,16.97
2017-07-27T07:42:38.099Z,14.70
2017-07-27T07:47:40.083Z,14.67
2017-07-27T07:52:44.711Z,19.33
2017-07-27T07:57:50.395Z,15.50
2017-07-27T08:02:54.405Z,16.50
2017-07-27T08:07:59.636Z,9.80
2017-07-27T08:13:05.082Z,16.70
2017-07-27T08:18:08.194Z,12.23
2017-07-27T08:23:11.698Z,8.10
2017-07-27T08:28:13.689Z,8.20
2017-07-27T08:33:17.905Z,10.10
2017-07-27T08:38:19.926Z,11.53
2017-07-27T08:43:21.663Z,7.53
2017-07-27T08:48:26.483Z,16.47
2017-07-27T08:53:29.408Z,7.90
2017-07-27T08:58:33.291Z,6.17
2017-07-27T09:03:36.272Z,7.13
2017-07-27T09:08:39.160Z,4.80
2017-07-27T09:13:40.889Z,4.00
2017-07-27T09:18:42.724Z,5.83
2017-07-27T09:23:45.986Z,5.43
2017-07-27T09:28:49.006Z,13.17
2017-07-27T09:33:50.807Z,6.70
2017-07-27T09:38:52.601Z,7.60
2017-07-27T09:43:54.414Z,3.77
2017-07-27T09:48:56.307Z,3.70
2017-07-27T09:54:01.716Z,5.40
2017-07-27T09:59:06.151Z,2.30
2017-07-27T10:04:08.027Z,5.03
2017-07-27T10:09:09.789Z,5.50
2017-07-27T10:14:13.920Z,3.10
2017-07-27T10:19:17.544Z,5.83
2017-07-27T10:24:19.314Z,3.20
2017-07-27T10:29:21.841Z,2.33
2017-07-27T10:34:23.677Z,4.80
2017-07-27T10:39:25.440Z,7.57
2017-07-27T10:44:27.155Z,5.73
2017-07-27T10:49:31.002Z,3.67
2017-07-27T10:54:32.890Z,4.63
2017-07-27T10:59:34.659Z,2.70
2017-07-27T11:04:36.414Z,5.07
2017-07-27T11:09:38.191Z,3.30
2017-07-27T11:14:39.967Z,2.23
2017-07-27T11:19:41.856Z,2.93
2017-07-27T11:24:43.604Z,2.10
2017-07-27T11:29:45.355Z,5.97
2017-07-27T11:34:47.155Z,9.03
2017-07-27T11:39:49.689Z,5.83
2017-07-27T11:44:51.458Z,4.70
2017-07-27T11:49:53.951Z,10.60
2017-07-27T11:54:59.947Z,2.90
2017-07-27T12:00:05.357Z,2.70
2017-07-27T12:05:11.066Z,3.77
2017-07-27T12:10:12.924Z,13.73
2017-07-27T12:15:17.982Z,3.60
2017-07-27T12:20:21.914Z,4.87
2017-07-27T12:25:24.123Z,10.73
2017-07-27T12:30:26.047Z,5.00
2017-07-27T12:35:28.578Z,4.17
2017-07-27T12:40:30.338Z,6.20
2017-07-27T12:45:32.959Z,3.33
2017-07-27T12:50:38.445Z,3.00
2017-07-27T12:55:40.150Z,4.53
2017-07-27T13:00:41.897Z,9.20
2017-07-27T13:05:43.625Z,7.53
2017-07-27T13:10:45.386Z,10.80
2017-07-27T13:15:47.153Z,10.70
2017-07-27T13:20:48.887Z,11.10
2017-07-27T13:25:50.653Z,8.73
2017-07-27T13:30:52.393Z,19.10
2017-07-27T13:35:54.206Z,11.87
2017-07-27T13:40:59.414Z,9.00
2017-07-27T13:46:01.338Z,13.07
2017-07-27T13:51:06.605Z,13.00
2017-07-27T13:56:08.355Z,13.80
2017-07-27T14:01:10.123Z,14.90
2017-07-27T14:06:11.884Z,22.83
2017-07-27T14:11:13.704Z,10.63
2017-07-27T14:16:16.239Z,13.63
2017-07-27T14:21:18.004Z,17.90
2017-07-27T14:26:19.747Z,22.50
2017-07-27T14:31:21.487Z,14.37
2017-07-27T14:36:23.448Z,14.90
2017-07-27T14:41:25.239Z,14.33
2017-07-27T14:46:27.634Z,13.50
2017-07-27T14:51:29.398Z,14.60
2017-07-27T14:56:31.185Z,19.60
2017-07-27T15:01:33.335Z,16.37
2017-07-27T15:06:35.176Z,21.57
2017-07-27T15:11:36.990Z,17.17
2017-07-27T15:16:39.495Z,11.27
2017-07-27T15:21:41.322Z,14.63
2017-07-27T15:26:43.167Z,21.57
2017-07-27T15:31:45.082Z,13.00
2017-07-27T15:36:47.076Z,16.73
2017-07-27T15:41:49.488Z,13.67
2017-07-27T15:46:51.282Z,12.90
2017-07-27T15:51:53.079Z,16.57
2017-07-27T15:56:55.841Z,13.13
2017-07-27T16:01:59.025Z,10.70
2017-07-27T16:07:00.872Z,12.10
2017-07-27T16:12:02.806Z,16.90
2017-07-27T16:17:04.599Z,16.57
2017-07-27T16:22:06.369Z,15.13
2017-07-27T16:27:08.138Z,20.23
2017-07-27T16:32:09.949Z,17.37
2017-07-27T16:37:11.756Z,12.30
2017-07-27T16:42:13.545Z,19.50
2017-07-27T16:47:15.358Z,12.50
2017-07-27T16:52:17.190Z,17.90
2017-07-27T16:57:18.972Z,21.13
2017-07-27T17:02:20.755Z,22.73
2017-07-27T17:07:22.522Z,12.33
2017-07-27T17:12:24.367Z,12.87
2017-07-27T17:17:26.102Z,11.43
2017-07-27T17:22:27.841Z,12.43
2017-07-27T17:27:30.050Z,15.70
2017-07-27T17:32:31.859Z,16.17
2017-07-27T17:37:33.603Z,21.00
2017-07-27T17:42:35.333Z,13.20
2017-07-27T17:47:37.091Z,12.53
2017-07-27T17:52:38.823Z,11.40
2017-07-27T17:57:40.885Z,11.10
2017-07-27T18:02:42.643Z,13.37
2017-07-27T18:07:48.967Z,16.27
2017-07-27T18:12:51.037Z,20.10
2017-07-27T18:17:52.761Z,18.13
2017-07-27T18:22:54.519Z,14.63
2017-07-27T18:27:56.298Z,10.37
2017-07-27T18:32:59.307Z,18.87
2017-07-27T18:38:08.069Z,16.13
2017-07-27T18:43:10.552Z,19.17
2017-07-27T18:48:12.314Z,23.27
2017-07-27T18:53:14.112Z,17.27
2017-07-27T18:58:16.940Z,23.33
2017-07-27T19:03:18.964Z,22.43
2017-07-27T19:08:21.027Z,19.03
2017-07-27T19:13:23.178Z,20.83
2017-07-27T19:18:25.166Z,22.97
2017-07-27T19:23:27.147Z,16.63
2017-07-27T19:28:29.112Z,13.90
2017-07-27T19:33:30.842Z,19.73
2017-07-27T19:38:32.583Z,41.63
2017-07-27T19:43:34.352Z,26.43
2017-07-27T19:48:36.099Z,17.33
2017-07-27T19:53:37.846Z,24.47
2017-07-27T19:58:39.594Z,30.63
2017-07-27T20:03:41.346Z,19.47
2017-07-27T20:08:43.101Z,20.30
2017-07-27T20:13:45.615Z,20.57
2017-07-27T20:18:47.419Z,26.00
2017-07-27T20:23:49.184Z,36.07
2017-07-27T20:28:50.950Z,16.43
2017-07-27T20:33:52.776Z,20.17
2017-07-27T20:38:54.839Z,19.00
2017-07-27T20:43:56.596Z,23.33
2017-07-27T20:48:58.636Z,16.80
2017-07-27T20:54:00.690Z,19.70
2017-07-27T20:59:02.437Z,14.67
2017-07-27T21:04:04.470Z,23.40
2017-07-27T21:09:06.183Z,22.50
2017-07-27T21:14:08.679Z,20.67
2017-07-27T21:19:10.429Z,21.57
2017-07-27T21:24:12.581Z,22.47
2017-07-27T21:29:14.324Z,20.97
2017-07-27T21:34:16.141Z,25.50
2017-07-27T21:39:17.887Z,22.10
2017-07-27T21:44:19.622Z,18.07
2017-07-27T21:49:21.402Z,25.13
2017-07-27T21:54:23.152Z,16.23
2017-07-27T21:59:24.874Z,16.83
2017-07-27T22:04:26.663Z,27.73
2017-07-27T22:09:28.399Z,29.93
2017-07-27T22:14:30.130Z,19.40
2017-07-27T22:19:31.910Z,25.23
2017-07-27T22:24:33.926Z,19.37
2017-07-27T22:29:35.699Z,21.43
2017-07-27T22:34:37.702Z,32.17
2017-07-27T22:39:39.749Z,17.70
2017-07-27T22:44:41.768Z,16.67
2017-07-27T22:49:43.884Z,13.70
2017-07-27T22:54:46.428Z,20.20
2017-07-27T22:59:48.914Z,18.13
2017-07-27T23:04:50.695Z,11.70
2017-07-27T23:09:52.423Z,11.33
2017-07-27T23:14:54.214Z,14.70
2017-07-27T23:19:56.073Z,12.50
2017-07-27T23:24:57.781Z,10.27
2017-07-27T23:29:59.586Z,24.90
2017-07-27T23:35:02.063Z,13.97
2017-07-27T23:40:04.531Z,17.73
2017-07-27T23:45:06.274Z,16.53
2017-07-27T23:50:07.995Z,12.43
2017-07-27T23:55:09.732Z,21.70
